Terminal Aerodrome Forecast
Issued by NWS

Home | Current Version | Previous Version | Text Only | Print | Product List | Glossary On
Versions: 1 2 3 4 5 6 7 8 9 10 11 12 13 14
000
FTUS42 KMLB 172333
TAFTIX
TAF
KTIX 172333Z 1800/1824 VRB03KT P6SM FEW035 SCT250
     FM180700 VRB02KT 5SM BR SCT004
      TEMPO 1809/1813 1SM BR BKN004
     FM181500 20006KT P6SM SCT010 SCT030 SCT250
     FM181900 11007KT P6SM SCT030 SCT050 SCT250
      AMD NOT SKED 1802/1812=

USA.gov is the U.S. government's official web portal to all federal, state and local government web resources and services.